Time;durP1;ratioP1;P1;durP2;ratioP2;P2;SDS_P1;SDS_P2;PMS_P1;PMS_P2;Temp;Humidity;BMP_temperature;BMP_pressure;BME280_temperature;BME280_humidity;BME280_pressure;Samples;Min_cycle;Max_cycle;Signal;HPM_P1;HPM_P2
2022/10/07 00:02:08;;;;;;;13.02;4.43;;;14.70;99.90;;;;;;5024969;28;20117;-74
2022/10/07 00:04:35;;;;;;;13.20;4.93;;;14.70;99.90;;;;;;5024321;28;20031;-74
2022/10/07 00:07:04;;;;;;;7.85;3.67;;;14.70;99.90;;;;;;5025536;28;20033;-74
2022/10/07 00:09:32;;;;;;;8.82;4.55;;;14.60;99.90;;;;;;5024602;28;20479;-74
2022/10/07 00:11:58;;;;;;;13.20;3.63;;;14.60;99.90;;;;;;5024956;28;20022;-74
2022/10/07 00:14:24;;;;;;;10.38;4.13;;;14.60;99.90;;;;;;5021573;28;20649;-74
2022/10/07 00:16:55;;;;;;;10.32;4.32;;;14.60;99.90;;;;;;5023971;28;20033;-74
2022/10/07 00:19:21;;;;;;;8.00;3.72;;;14.60;99.90;;;;;;5020390;28;20394;-74
2022/10/07 00:21:47;;;;;;;10.00;3.53;;;14.60;99.90;;;;;;5021815;28;20026;-74
2022/10/07 00:24:14;;;;;;;7.72;3.45;;;14.60;99.90;;;;;;5017291;28;20022;-74
2022/10/07 00:26:43;;;;;;;9.88;3.50;;;14.60;99.90;;;;;;5022729;28;20378;-74
2022/10/07 00:29:08;;;;;;;10.65;3.90;;;14.60;99.90;;;;;;5037309;28;20575;-74
2022/10/07 00:31:37;;;;;;;10.55;3.72;;;14.60;99.90;;;;;;5025786;28;20036;-74
2022/10/07 00:34:03;;;;;;;10.63;3.55;;;14.60;99.90;;;;;;5027112;28;20056;-73
2022/10/07 00:36:32;;;;;;;9.73;4.70;;;14.60;99.90;;;;;;5026585;28;20032;-73
2022/10/07 00:39:07;;;;;;;10.23;4.25;;;14.50;99.90;;;;;;5029201;28;20083;-73
2022/10/07 00:41:51;;;;;;;11.82;4.55;;;14.50;99.90;;;;;;5025914;28;20095;-73
2022/10/07 00:44:43;;;;;;;10.52;4.43;;;14.50;99.90;;;;;;5029963;28;20406;-73
2022/10/07 00:47:30;;;;;;;10.13;3.25;;;14.50;99.90;;;;;;5022795;28;20104;-73
2022/10/07 00:50:06;;;;;;;8.98;3.60;;;14.50;99.90;;;;;;5021331;28;20040;-74
2022/10/07 00:52:42;;;;;;;9.63;3.75;;;14.40;99.90;;;;;;5021885;28;20155;-74
2022/10/07 00:55:17;;;;;;;10.88;4.25;;;14.40;99.90;;;;;;5023703;28;20080;-74
2022/10/07 00:57:47;;;;;;;10.30;3.88;;;14.50;99.90;;;;;;5025820;28;20532;-75
2022/10/07 01:00:22;;;;;;;8.93;4.18;;;14.40;99.90;;;;;;5020215;28;20060;-73
2022/10/07 01:02:49;;;;;;;7.22;3.60;;;14.40;99.90;;;;;;5051386;23;20048;-78
2022/10/07 01:05:15;;;;;;;10.13;3.50;;;14.40;99.90;;;;;;5031239;28;20071;-79
2022/10/07 01:07:42;;;;;;;9.45;4.15;;;14.40;99.90;;;;;;5036207;28;20406;-78
2022/10/07 01:10:10;;;;;;;5.55;3.88;;;14.40;99.90;;;;;;5013933;28;20416;-80
2022/10/07 01:13:00;;;;;;;8.27;4.00;;;14.40;99.90;;;;;;5024343;28;21168;-80
2022/10/07 01:15:45;;;;;;;11.52;3.92;;;14.30;99.90;;;;;;5016149;28;20513;-77
2022/10/07 01:18:32;;;;;;;11.73;4.15;;;14.40;99.90;;;;;;4999784;28;20838;-79
2022/10/07 01:21:14;;;;;;;11.25;3.67;;;14.40;99.90;;;;;;5015977;28;20028;-79
2022/10/07 01:23:58;;;;;;;13.18;4.60;;;14.40;99.90;;;;;;5016029;28;20482;-80
2022/10/07 01:26:56;;;;;;;9.55;4.30;;;14.40;99.90;;;;;;5015210;28;20037;-80
2022/10/07 01:29:54;;;;;;;10.75;4.25;;;14.40;99.90;;;;;;5016892;28;20026;-77
2022/10/07 01:32:45;;;;;;;8.15;3.90;;;14.40;99.90;;;;;;5008385;28;20044;-80
2022/10/07 01:35:17;;;;;;;7.85;3.92;;;14.40;99.90;;;;;;5018693;28;20026;-78
2022/10/07 01:37:47;;;;;;;11.45;4.40;;;14.40;99.90;;;;;;5019815;28;20033;-79
2022/10/07 01:40:16;;;;;;;6.72;3.17;;;14.30;99.90;;;;;;5022744;28;20390;-80
2022/10/07 01:42:44;;;;;;;8.52;3.72;;;14.30;99.90;;;;;;5026217;28;20022;-78
2022/10/07 01:45:20;;;;;;;9.32;3.80;;;14.30;99.90;;;;;;5023955;28;20105;-77
2022/10/07 01:47:49;;;;;;;7.68;3.67;;;14.30;99.90;;;;;;5020038;28;20022;-80
2022/10/07 01:50:22;;;;;;;13.00;4.38;;;14.30;99.90;;;;;;5013265;28;20085;-81
2022/10/07 01:53:25;;;;;;;7.40;3.73;;;14.30;99.90;;;;;;5021413;28;20022;-81
2022/10/07 01:56:18;;;;;;;12.35;4.95;;;14.30;99.90;;;;;;5010240;28;20271;-80
2022/10/07 01:59:04;;;;;;;10.52;4.47;;;14.30;99.90;;;;;;5014936;28;20030;-79
2022/10/07 02:01:51;;;;;;;15.80;5.05;;;14.30;99.90;;;;;;5032497;28;20081;-81
2022/10/07 02:04:39;;;;;;;13.38;4.95;;;14.30;99.90;;;;;;5021560;28;20060;-80
2022/10/07 02:07:41;;;;;;;11.93;5.15;;;14.20;99.90;;;;;;5015286;28;20022;-77
2022/10/07 02:10:11;;;;;;;12.75;5.68;;;14.20;99.90;;;;;;5017356;28;20101;-81
2022/10/07 02:12:48;;;;;;;7.35;4.47;;;14.10;99.90;;;;;;5023006;28;20011;-80
2022/10/07 02:15:47;;;;;;;10.75;4.68;;;14.10;99.90;;;;;;5016930;28;20393;-79
2022/10/07 02:18:16;;;;;;;10.80;4.82;;;14.10;99.90;;;;;;5016690;28;20034;-83
2022/10/07 02:20:47;;;;;;;10.93;4.63;;;14.00;99.90;;;;;;5020806;28;20022;-81
2022/10/07 02:23:16;;;;;;;9.10;4.95;;;14.00;99.90;;;;;;5002653;28;20562;-81
2022/10/07 02:25:46;;;;;;;13.75;5.15;;;14.00;99.90;;;;;;5020621;28;20025;-79
2022/10/07 02:28:13;;;;;;;14.30;5.50;;;14.00;99.90;;;;;;5014137;28;20117;-78
2022/10/07 02:30:47;;;;;;;8.93;4.82;;;14.00;99.90;;;;;;5020488;28;20041;-81
2022/10/07 02:33:17;;;;;;;11.48;5.13;;;14.00;99.90;;;;;;5021402;28;20021;-82
2022/10/07 02:35:51;;;;;;;11.95;4.80;;;14.00;99.90;;;;;;5014881;28;20034;-81
2022/10/07 02:38:17;;;;;;;14.95;5.18;;;14.00;99.90;;;;;;5013862;28;20030;-82
2022/10/07 02:41:09;;;;;;;7.25;4.15;;;14.00;99.90;;;;;;5024977;28;20029;-80
2022/10/07 02:43:55;;;;;;;10.00;5.65;;;14.00;99.90;;;;;;5008881;28;20057;-81
2022/10/07 02:46:21;;;;;;;11.43;5.32;;;14.00;99.90;;;;;;5003430;28;20529;-80
2022/10/07 02:48:51;;;;;;;9.60;5.22;;;14.00;99.90;;;;;;5019697;28;20089;-78
2022/10/07 02:51:21;;;;;;;8.70;4.85;;;14.00;99.90;;;;;;5024798;28;20076;-79
2022/10/07 02:53:49;;;;;;;11.80;5.18;;;14.00;99.90;;;;;;5018165;28;20112;-80
2022/10/07 02:56:18;;;;;;;9.23;4.97;;;13.90;99.90;;;;;;5021020;28;20101;-82
2022/10/07 02:58:46;;;;;;;9.30;4.82;;;13.90;99.90;;;;;;5011519;28;20037;-82
2022/10/07 03:01:16;;;;;;;14.27;4.47;;;13.90;99.90;;;;;;5017658;28;20030;-82
2022/10/07 03:03:43;;;;;;;8.27;4.70;;;13.90;99.90;;;;;;4998335;28;20405;-82
2022/10/07 03:06:10;;;;;;;13.85;5.45;;;13.90;99.90;;;;;;5019292;28;20014;-82
2022/10/07 03:08:36;;;;;;;9.27;4.80;;;13.90;99.90;;;;;;5029553;28;20017;-83
2022/10/07 03:11:01;;;;;;;9.43;4.35;;;13.80;99.90;;;;;;5007347;28;20040;-79
2022/10/07 03:13:27;;;;;;;9.90;4.50;;;13.80;99.90;;;;;;5017652;28;20068;-81
2022/10/07 03:15:53;;;;;;;10.20;4.40;;;13.80;99.90;;;;;;5011486;28;20030;-82
2022/10/07 03:18:28;;;;;;;8.38;4.28;;;13.80;99.90;;;;;;5016562;28;20030;-83
2022/10/07 03:20:59;;;;;;;11.45;4.63;;;13.80;99.90;;;;;;5017156;28;20172;-83
2022/10/07 03:23:26;;;;;;;9.88;4.80;;;13.80;99.90;;;;;;5012717;28;20019;-82
2022/10/07 03:25:53;;;;;;;12.85;4.70;;;13.80;99.90;;;;;;5000651;28;20025;-81
2022/10/07 03:28:20;;;;;;;9.07;4.40;;;13.70;99.90;;;;;;5022351;28;20036;-81
2022/10/07 03:30:47;;;;;;;12.55;4.57;;;13.70;99.90;;;;;;5020089;28;20014;-78
2022/10/07 03:33:14;;;;;;;14.48;4.38;;;13.70;99.90;;;;;;5019325;28;20026;-80
2022/10/07 03:35:39;;;;;;;8.05;4.72;;;13.70;99.90;;;;;;5002766;28;20030;-80
2022/10/07 03:38:07;;;;;;;11.98;4.38;;;13.60;99.90;;;;;;5021264;28;20057;-81
2022/10/07 03:40:34;;;;;;;9.52;4.38;;;13.60;99.90;;;;;;5018743;28;20494;-80
2022/10/07 03:42:59;;;;;;;8.77;4.28;;;13.50;99.90;;;;;;5019870;28;20109;-82
2022/10/07 03:45:25;;;;;;;6.32;4.35;;;13.50;99.90;;;;;;5015088;28;20105;-81
2022/10/07 03:47:51;;;;;;;12.75;4.40;;;13.50;99.90;;;;;;5019868;28;20101;-77
2022/10/07 03:50:43;;;;;;;8.23;3.97;;;13.50;99.90;;;;;;5019088;28;20486;-81
2022/10/07 03:53:09;;;;;;;10.95;4.45;;;13.50;99.90;;;;;;5012765;28;20037;-78
2022/10/07 03:55:38;;;;;;;9.93;4.28;;;13.40;99.90;;;;;;5014706;28;20065;-81
2022/10/07 03:58:03;;;;;;;7.60;4.35;;;13.40;99.90;;;;;;5018138;28;20109;-80
2022/10/07 04:00:29;;;;;;;12.82;4.65;;;13.30;99.90;;;;;;5018953;28;20052;-81
2022/10/07 04:02:57;;;;;;;10.07;4.65;;;13.30;99.90;;;;;;4997559;28;20029;-79
2022/10/07 04:05:28;;;;;;;11.57;5.57;;;13.30;99.90;;;;;;5018717;28;20034;-79
2022/10/07 04:07:54;;;;;;;10.75;4.43;;;13.20;99.90;;;;;;5006512;28;20402;-80
2022/10/07 04:10:20;;;;;;;8.55;4.00;;;13.20;99.90;;;;;;5023252;28;20034;-77
2022/10/07 04:12:50;;;;;;;14.95;5.70;;;13.20;99.90;;;;;;5021344;28;20022;-77
2022/10/07 04:15:16;;;;;;;9.88;5.07;;;13.10;99.90;;;;;;5004503;28;20651;-79
2022/10/07 04:17:44;;;;;;;7.22;4.47;;;13.10;99.90;;;;;;5022947;28;20037;-77
2022/10/07 04:20:11;;;;;;;7.38;4.13;;;13.00;99.90;;;;;;5018220;28;20022;-79
2022/10/07 04:22:39;;;;;;;12.85;4.97;;;13.00;99.90;;;;;;5022966;28;20030;-77
2022/10/07 04:27:54;;;;;;;11.57;4.32;;;12.90;99.90;;;;;;5020045;28;20075;-76
2022/10/07 04:30:25;;;;;;;12.95;4.75;;;12.90;99.90;;;;;;5016666;28;20029;-79
2022/10/07 04:32:53;;;;;;;9.40;4.38;;;12.90;99.90;;;;;;5024704;28;20028;-78
2022/10/07 04:35:21;;;;;;;8.73;4.10;;;12.80;99.90;;;;;;5016651;28;20030;-79
2022/10/07 04:37:48;;;;;;;8.32;4.43;;;12.80;99.90;;;;;;5021152;28;20030;-80
2022/10/07 04:40:14;;;;;;;8.57;4.28;;;12.70;99.90;;;;;;5024379;28;20033;-79
2022/10/07 04:45:37;;;;;;;9.93;4.90;;;12.70;99.90;;;;;;5008139;28;20060;-69
2022/10/07 04:48:04;;;;;;;12.27;4.97;;;12.60;99.90;;;;;;5007778;28;20060;-70
2022/10/07 04:50:40;;;;;;;10.25;4.93;;;12.60;99.90;;;;;;5009500;28;20033;-70
2022/10/07 04:53:08;;;;;;;12.48;5.35;;;12.60;99.90;;;;;;5010698;28;20533;-70
2022/10/07 04:55:38;;;;;;;10.65;4.82;;;12.60;99.90;;;;;;5008939;28;20030;-70
2022/10/07 04:58:04;;;;;;;8.43;4.35;;;12.60;99.90;;;;;;5001521;28;20034;-78
2022/10/07 05:00:31;;;;;;;12.98;5.22;;;12.60;99.90;;;;;;5019505;28;20110;-78
2022/10/07 05:03:02;;;;;;;7.82;4.10;;;12.50;99.90;;;;;;4999739;28;20029;-77
2022/10/07 05:05:30;;;;;;;11.40;5.88;;;12.50;99.90;;;;;;5013408;28;20040;-78
2022/10/07 05:07:56;;;;;;;11.57;5.18;;;12.50;99.90;;;;;;4992381;28;20053;-77
2022/10/07 05:10:22;;;;;;;15.95;5.47;;;12.40;99.90;;;;;;5006589;28;20030;-77
2022/10/07 05:12:54;;;;;;;12.50;5.18;;;12.40;99.90;;;;;;5019867;28;20025;-78
2022/10/07 05:15:20;;;;;;;10.30;5.10;;;12.40;99.90;;;;;;5001981;28;20100;-79
2022/10/07 05:17:45;;;;;;;12.73;5.45;;;12.30;99.90;;;;;;5021636;28;20026;-78
2022/10/07 05:20:11;;;;;;;13.00;6.03;;;12.30;99.90;;;;;;5019575;28;20049;-78
2022/10/07 05:22:45;;;;;;;12.07;5.80;;;12.30;99.90;;;;;;5017354;28;20050;-78
2022/10/07 05:25:14;;;;;;;11.48;5.70;;;12.20;99.90;;;;;;5019937;28;20050;-78
2022/10/07 05:27:43;;;;;;;11.07;5.63;;;12.20;99.90;;;;;;5021851;28;20018;-78
2022/10/07 05:30:09;;;;;;;12.05;5.55;;;12.20;99.90;;;;;;5019530;28;20037;-78
2022/10/07 05:32:35;;;;;;;12.82;5.43;;;12.10;99.90;;;;;;5019513;28;20030;-77
2022/10/07 05:35:00;;;;;;;11.98;5.68;;;12.10;99.90;;;;;;5023549;28;20106;-79
2022/10/07 05:37:26;;;;;;;16.02;5.55;;;12.10;99.90;;;;;;5006941;28;20035;-78
2022/10/07 05:39:55;;;;;;;8.90;5.80;;;12.10;99.90;;;;;;5035596;28;20360;-78
2022/10/07 05:42:24;;;;;;;13.55;6.03;;;12.10;99.90;;;;;;5019541;28;20022;-80
2022/10/07 05:44:49;;;;;;;15.75;6.65;;;12.00;99.90;;;;;;5018071;28;20029;-80
2022/10/07 05:47:21;;;;;;;15.23;6.47;;;12.00;99.90;;;;;;5023204;28;20474;-76
2022/10/07 05:49:47;;;;;;;16.40;7.55;;;12.00;99.90;;;;;;5031641;28;20034;-76
2022/10/07 05:52:12;;;;;;;12.13;7.07;;;12.00;99.90;;;;;;5031492;28;20029;-76
2022/10/07 05:54:38;;;;;;;14.23;6.93;;;12.00;99.90;;;;;;5030348;28;20083;-75
2022/10/07 05:57:03;;;;;;;15.82;6.38;;;12.00;99.90;;;;;;5030415;28;20486;-75
2022/10/07 05:59:30;;;;;;;13.00;6.95;;;12.00;99.90;;;;;;5031536;28;20104;-76
2022/10/07 06:01:58;;;;;;;18.13;8.00;;;12.00;99.90;;;;;;5031443;28;20021;-77
2022/10/07 06:04:25;;;;;;;29.73;8.65;;;12.00;99.90;;;;;;5031287;28;20022;-75
2022/10/07 06:06:54;;;;;;;18.23;8.65;;;12.10;99.90;;;;;;5030261;28;20026;-76
2022/10/07 06:14:48;;;;;;;19.35;9.40;;;12.10;99.90;;;;;;5017525;28;20017;-78
2022/10/07 06:17:15;;;;;;;20.52;8.50;;;12.10;99.90;;;;;;5013855;28;20045;-78
2022/10/07 06:19:40;;;;;;;17.67;8.05;;;12.10;99.90;;;;;;5026463;28;20494;-77
2022/10/07 06:22:06;;;;;;;17.35;9.27;;;12.20;99.90;;;;;;5021449;28;20034;-78
2022/10/07 06:24:32;;;;;;;18.70;8.27;;;12.20;99.90;;;;;;5019547;28;20395;-78
2022/10/07 06:26:58;;;;;;;14.93;7.00;;;12.20;99.90;;;;;;5017271;28;20018;-78
2022/10/07 06:29:33;;;;;;;14.98;7.05;;;12.30;99.90;;;;;;5014597;28;20509;-76
2022/10/07 06:31:59;;;;;;;14.32;6.78;;;12.30;99.90;;;;;;5014578;28;20030;-78
2022/10/07 06:34:24;;;;;;;14.48;6.10;;;12.40;99.90;;;;;;4995879;28;20060;-77
2022/10/07 06:36:51;;;;;;;12.70;6.30;;;12.40;99.90;;;;;;5012294;28;20463;-78
2022/10/07 06:39:23;;;;;;;11.52;5.90;;;12.50;99.90;;;;;;4993038;28;20118;-75
2022/10/07 06:41:53;;;;;;;16.00;5.88;;;12.60;99.90;;;;;;5014203;28;20088;-76
2022/10/07 06:44:19;;;;;;;12.00;5.68;;;12.60;99.90;;;;;;5007978;28;20084;-75
2022/10/07 06:46:47;;;;;;;13.40;6.20;;;12.70;99.90;;;;;;5012691;28;20502;-77
2022/10/07 06:49:13;;;;;;;11.68;5.82;;;12.80;99.90;;;;;;4997945;28;20022;-77
2022/10/07 06:51:56;;;;;;;9.77;5.68;;;12.80;99.90;;;;;;5018224;28;20470;-77
2022/10/07 06:54:25;;;;;;;10.60;5.47;;;12.90;99.90;;;;;;5014983;28;20033;-77
2022/10/07 06:56:51;;;;;;;17.40;7.93;;;12.90;99.90;;;;;;4994162;28;20425;-76
2022/10/07 06:59:16;;;;;;;15.73;8.15;;;13.00;99.90;;;;;;5010995;28;20084;-75
2022/10/07 07:01:42;;;;;;;15.73;8.93;;;13.00;99.90;;;;;;5014064;28;20045;-74
2022/10/07 07:04:08;;;;;;;14.25;7.30;;;13.20;99.90;;;;;;5013174;28;20028;-74
2022/10/07 07:06:37;;;;;;;18.08;9.02;;;13.20;99.90;;;;;;4997469;28;20152;-74
2022/10/07 07:09:04;;;;;;;15.60;7.95;;;13.30;99.90;;;;;;5014472;28;20115;-74
2022/10/07 07:11:37;;;;;;;16.00;8.27;;;13.40;99.90;;;;;;5013438;28;20036;-74
2022/10/07 07:14:24;;;;;;;17.52;9.07;;;13.40;99.90;;;;;;5016722;28;20052;-74
2022/10/07 07:16:49;;;;;;;15.30;7.97;;;13.50;99.90;;;;;;5010639;28;20072;-75
2022/10/07 07:19:15;;;;;;;16.33;8.63;;;13.50;99.90;;;;;;4993948;28;20072;-74
2022/10/07 07:21:40;;;;;;;17.60;9.00;;;13.60;99.90;;;;;;5010746;28;20097;-74
2022/10/07 07:24:06;;;;;;;17.27;9.20;;;13.60;99.90;;;;;;5017042;28;20060;-74
2022/10/07 07:26:38;;;;;;;18.30;9.38;;;13.70;99.90;;;;;;4994396;28;20029;-74
2022/10/07 07:29:05;;;;;;;16.98;9.45;;;13.70;99.90;;;;;;4993591;28;20026;-74
2022/10/07 07:31:34;;;;;;;16.80;9.88;;;13.80;99.90;;;;;;5007131;28;20123;-75
2022/10/07 07:34:02;;;;;;;20.70;9.90;;;13.80;99.90;;;;;;5011627;28;20022;-74
2022/10/07 07:36:33;;;;;;;22.52;11.02;;;13.80;99.90;;;;;;4997795;28;20030;-74
2022/10/07 07:39:17;;;;;;;19.88;9.80;;;13.90;99.90;;;;;;5011883;28;20064;-75
2022/10/07 07:41:45;;;;;;;21.02;10.95;;;13.90;99.90;;;;;;5009219;28;20072;-74
2022/10/07 07:44:20;;;;;;;17.13;10.25;;;14.00;99.90;;;;;;5009149;28;20032;-74
2022/10/07 07:46:50;;;;;;;21.75;10.68;;;14.00;99.90;;;;;;5015671;28;20108;-74
2022/10/07 07:49:15;;;;;;;24.98;11.60;;;14.00;99.90;;;;;;5016138;28;20109;-74
2022/10/07 07:51:50;;;;;;;23.45;11.38;;;14.10;99.90;;;;;;4995477;28;20057;-74
2022/10/07 07:54:16;;;;;;;25.30;11.93;;;14.10;99.90;;;;;;4995664;28;20559;-75
2022/10/07 07:56:42;;;;;;;19.10;10.35;;;14.10;99.90;;;;;;5013067;28;20089;-74
2022/10/07 07:59:09;;;;;;;22.48;11.68;;;14.10;99.90;;;;;;4997574;28;20026;-74
2022/10/07 08:01:34;;;;;;;21.20;11.27;;;14.20;99.90;;;;;;5012608;28;20025;-74
2022/10/07 08:04:01;;;;;;;20.23;11.18;;;14.20;99.90;;;;;;5016807;28;20048;-74
2022/10/07 08:06:29;;;;;;;23.15;12.25;;;14.20;99.90;;;;;;5011880;28;20475;-74
2022/10/07 08:08:56;;;;;;;18.80;11.25;;;14.20;99.90;;;;;;5009386;28;20387;-75
2022/10/07 08:11:22;;;;;;;20.08;12.40;;;14.20;99.90;;;;;;5011088;28;20022;-74
2022/10/07 08:13:52;;;;;;;19.10;11.73;;;14.30;99.90;;;;;;5014436;28;20053;-75
2022/10/07 08:16:19;;;;;;;17.45;10.90;;;14.30;99.90;;;;;;5012667;28;20398;-75
2022/10/07 08:18:47;;;;;;;20.48;11.20;;;14.40;99.90;;;;;;5013420;28;20057;-75
2022/10/07 08:21:19;;;;;;;20.38;11.52;;;14.40;99.90;;;;;;5012824;28;20022;-75
2022/10/07 08:23:56;;;;;;;23.48;11.73;;;14.50;99.90;;;;;;5007380;28;20109;-74
2022/10/07 08:26:22;;;;;;;17.45;10.77;;;14.50;99.90;;;;;;5012654;28;20013;-74
2022/10/07 08:28:48;;;;;;;16.17;9.15;;;14.60;99.90;;;;;;5014259;28;20029;-74
2022/10/07 08:31:17;;;;;;;14.70;9.40;;;14.70;99.90;;;;;;5011468;28;20022;-75
2022/10/07 08:33:44;;;;;;;18.33;10.88;;;14.80;99.90;;;;;;5011882;28;20018;-74
2022/10/07 08:36:13;;;;;;;17.35;10.07;;;14.90;99.90;;;;;;5007895;28;20368;-74
2022/10/07 08:38:40;;;;;;;13.82;8.68;;;15.00;99.90;;;;;;5011004;28;20117;-74
2022/10/07 08:41:08;;;;;;;14.82;9.43;;;15.10;99.90;;;;;;5010836;28;20394;-75
2022/10/07 08:43:36;;;;;;;18.65;10.93;;;15.20;99.90;;;;;;5006760;28;20457;-73
2022/10/07 08:46:14;;;;;;;19.92;10.13;;;15.30;99.90;;;;;;5008332;28;20026;-73
2022/10/07 08:48:59;;;;;;;15.90;10.48;;;15.30;99.90;;;;;;5011006;28;20056;-74
2022/10/07 08:51:28;;;;;;;19.55;10.80;;;15.40;99.90;;;;;;4984613;28;20034;-75
2022/10/07 08:53:59;;;;;;;23.48;10.07;;;15.50;99.90;;;;;;4997334;28;20056;-74
2022/10/07 08:56:32;;;;;;;19.83;10.30;;;15.60;99.90;;;;;;5012330;28;20037;-74
2022/10/07 08:59:25;;;;;;;15.32;10.07;;;15.70;99.90;;;;;;5010665;28;20029;-75
2022/10/07 09:01:57;;;;;;;13.07;7.78;;;15.80;99.90;;;;;;5008829;28;20394;-74
2022/10/07 09:04:41;;;;;;;12.57;7.18;;;15.80;99.90;;;;;;5014544;28;20378;-74
2022/10/07 09:07:13;;;;;;;16.58;9.98;;;15.90;99.90;;;;;;5011686;28;20034;-74
2022/10/07 09:09:52;;;;;;;14.85;10.10;;;16.00;99.90;;;;;;5011316;28;20083;-75
2022/10/07 09:12:29;;;;;;;16.40;10.25;;;16.00;99.90;;;;;;5012937;28;20026;-75
2022/10/07 09:15:00;;;;;;;14.57;9.85;;;16.10;99.90;;;;;;4991867;28;20073;-75
2022/10/07 09:17:36;;;;;;;14.18;9.80;;;16.10;99.90;;;;;;5013337;28;20034;-75
2022/10/07 09:20:17;;;;;;;15.45;10.20;;;16.10;99.90;;;;;;5011914;28;20352;-75
2022/10/07 09:22:52;;;;;;;13.82;8.98;;;16.20;99.90;;;;;;5011500;28;20095;-75
2022/10/07 09:25:23;;;;;;;17.50;8.95;;;16.20;99.90;;;;;;5017958;28;20026;-75
2022/10/07 09:27:53;;;;;;;12.60;8.82;;;16.30;99.90;;;;;;5011829;28;20025;-75
2022/10/07 09:30:21;;;;;;;15.48;9.00;;;16.30;99.90;;;;;;5010325;28;20034;-75
2022/10/07 09:32:52;;;;;;;13.90;9.73;;;16.30;99.90;;;;;;5009545;28;20092;-75
2022/10/07 09:35:20;;;;;;;15.27;9.10;;;16.40;99.90;;;;;;5011505;28;20049;-74
2022/10/07 09:38:09;;;;;;;16.30;8.73;;;16.40;99.90;;;;;;4994110;28;20030;-73
2022/10/07 09:43:33;;;;;;;14.50;8.35;;;16.50;99.90;;;;;;4996090;28;20394;-75
2022/10/07 09:46:00;;;;;;;13.20;8.40;;;16.50;99.90;;;;;;5010465;28;20041;-75
2022/10/07 09:48:32;;;;;;;13.48;8.05;;;16.60;99.90;;;;;;5010181;28;20451;-75
2022/10/07 09:51:23;;;;;;;12.50;9.10;;;16.50;99.90;;;;;;5011744;28;20537;-75
2022/10/07 09:54:03;;;;;;;14.02;7.65;;;16.60;99.90;;;;;;5009070;28;20025;-75
2022/10/07 09:56:36;;;;;;;12.73;7.70;;;16.70;99.90;;;;;;4999323;28;20033;-76
2022/10/07 09:59:24;;;;;;;;;;;16.80;99.90;;;;;;5015142;28;20029;-75
2022/10/07 10:01:53;;;;;;;9.52;6.65;;;16.90;99.90;;;;;;5008367;28;19914;-76
2022/10/07 10:04:38;;;;;;;12.25;7.07;;;16.90;99.90;;;;;;5009659;28;20026;-74
2022/10/07 10:07:15;;;;;;;11.80;6.82;;;17.00;99.90;;;;;;5020803;28;20036;-75
2022/10/07 10:10:13;;;;;;;10.70;6.65;;;17.10;99.90;;;;;;5011781;28;20364;-75
2022/10/07 10:12:47;;;;;;;12.13;7.30;;;17.20;99.90;;;;;;5013340;28;20030;-75
2022/10/07 10:15:23;;;;;;;12.75;7.20;;;17.20;99.90;;;;;;5019747;28;20029;-75
2022/10/07 10:17:50;;;;;;;11.98;6.15;;;17.30;99.90;;;;;;5010439;28;20056;-75
2022/10/07 10:20:35;;;;;;;12.90;7.15;;;17.30;99.90;;;;;;5010015;28;20045;-75
2022/10/07 10:23:23;;;;;;;10.10;6.72;;;17.40;99.90;;;;;;5011409;28;20014;-76
2022/10/07 10:26:35;;;;;;;10.93;7.03;;;17.40;99.90;;;;;;4997236;28;20022;-76
2022/10/07 10:29:31;;;;;;;10.07;6.32;;;17.40;99.90;;;;;;5011664;28;20041;-75
2022/10/07 10:32:00;;;;;;;10.50;6.20;;;17.40;99.90;;;;;;5013434;28;20027;-73
2022/10/07 10:34:37;;;;;;;9.27;6.05;;;17.40;99.90;;;;;;4997725;28;20412;-75
2022/10/07 10:37:28;;;;;;;9.27;6.38;;;17.40;99.90;;;;;;5008261;28;21184;-75
2022/10/07 10:40:35;;;;;;;10.20;6.32;;;17.30;99.90;;;;;;5011809;28;20100;-77
2022/10/07 10:43:28;;;;;;;14.98;6.28;;;17.30;99.90;;;;;;5006664;28;20040;-75
2022/10/07 10:46:14;;;;;;;11.52;6.55;;;17.40;99.90;;;;;;5009180;28;20091;-75
2022/10/07 10:49:05;;;;;;;12.05;6.57;;;17.40;99.90;;;;;;5009633;28;20023;-75
2022/10/07 10:51:46;;;;;;;12.13;6.40;;;17.40;99.90;;;;;;4967221;28;20034;-75
2022/10/07 10:54:18;;;;;;;9.88;5.95;;;17.40;99.90;;;;;;5012175;28;20026;-76
2022/10/07 10:57:20;;;;;;;8.80;6.28;;;17.40;99.90;;;;;;5009333;28;20018;-76
2022/10/07 11:00:19;;;;;;;11.05;6.25;;;17.40;99.90;;;;;;5010120;28;20081;-75
2022/10/07 11:03:08;;;;;;;11.57;6.68;;;17.30;99.90;;;;;;4967130;28;20509;-75
2022/10/07 11:05:37;;;;;;;8.68;5.82;;;17.40;99.90;;;;;;4994443;28;20034;-75
2022/10/07 11:08:20;;;;;;;10.75;6.10;;;17.40;99.90;;;;;;4994734;28;20136;-74
2022/10/07 11:10:54;;;;;;;7.22;5.07;;;17.40;99.90;;;;;;5014463;28;20029;-74
2022/10/07 11:13:32;;;;;;;7.32;5.28;;;17.40;99.90;;;;;;4995061;28;20044;-73
2022/10/07 11:16:09;;;;;;;10.77;5.38;;;17.40;99.90;;;;;;4992407;28;20390;-74
2022/10/07 11:18:38;;;;;;;8.10;5.70;;;17.40;99.90;;;;;;5011420;28;20088;-74
2022/10/07 11:21:12;;;;;;;8.75;5.88;;;17.40;99.90;;;;;;5004895;28;20463;-77
2022/10/07 11:23:52;;;;;;;9.68;5.28;;;17.40;99.90;;;;;;5011722;28;20108;-79
2022/10/07 11:26:25;;;;;;;8.15;5.55;;;17.50;99.90;;;;;;5013493;28;20109;-74
2022/10/07 11:28:53;;;;;;;6.47;4.70;;;17.50;99.90;;;;;;4993551;28;20034;-75
2022/10/07 11:31:39;;;;;;;10.35;5.40;;;17.60;99.90;;;;;;4993343;28;20037;-75
2022/10/07 11:34:11;;;;;;;6.65;4.65;;;17.60;99.90;;;;;;5010718;28;20076;-76
2022/10/07 11:36:40;;;;;;;8.18;4.60;;;17.70;99.90;;;;;;4991106;28;20033;-76
2022/10/07 11:39:09;;;;;;;8.45;5.70;;;17.70;99.90;;;;;;5012370;28;20026;-76
2022/10/07 11:41:54;;;;;;;7.65;5.05;;;17.80;99.90;;;;;;5003141;28;20112;-76
2022/10/07 11:44:31;;;;;;;8.45;5.05;;;17.90;99.90;;;;;;4997153;28;20026;-76
2022/10/07 11:47:01;;;;;;;11.02;4.60;;;17.90;99.90;;;;;;5006760;28;20037;-75
2022/10/07 11:49:30;;;;;;;8.70;4.97;;;17.90;99.90;;;;;;5010523;28;20050;-75
2022/10/07 11:52:01;;;;;;;8.82;4.85;;;18.00;99.90;;;;;;4992881;28;20022;-75
2022/10/07 11:54:57;;;;;;;7.47;4.80;;;18.00;99.90;;;;;;5010563;28;20036;-77
2022/10/07 11:57:30;;;;;;;8.65;5.03;;;18.10;99.90;;;;;;5011864;28;20113;-78
2022/10/07 12:00:00;;;;;;;6.28;4.13;;;18.10;99.90;;;;;;5011569;28;20026;-78
2022/10/07 12:02:28;;;;;;;7.97;4.55;;;18.10;99.90;;;;;;5010984;28;20037;-78
2022/10/07 12:04:58;;;;;;;7.07;4.80;;;18.20;99.90;;;;;;5010969;28;20030;-77
2022/10/07 12:08:01;;;;;;;7.47;4.18;;;18.20;99.90;;;;;;5012219;28;20037;-78
2022/10/07 12:10:32;;;;;;;6.40;4.05;;;18.20;99.90;;;;;;4926222;29;20024;-77
2022/10/07 12:13:20;;;;;;;5.90;4.03;;;18.20;99.90;;;;;;5001100;28;20038;-76
2022/10/07 12:15:47;;;;;;;5.07;3.80;;;18.20;99.90;;;;;;4996846;28;20032;-75
2022/10/07 12:18:19;;;;;;;5.88;3.33;;;18.20;99.90;;;;;;4992806;28;20490;-76
2022/10/07 12:20:50;;;;;;;8.45;4.00;;;18.30;99.90;;;;;;5008769;28;20028;-77
2022/10/07 12:23:20;;;;;;;6.90;4.20;;;18.30;99.90;;;;;;5008684;28;20104;-76
2022/10/07 12:25:54;;;;;;;5.97;4.05;;;18.30;99.90;;;;;;5010388;28;20045;-76
2022/10/07 12:28:38;;;;;;;5.18;4.03;;;18.30;99.90;;;;;;5008844;28;20036;-76
2022/10/07 12:31:17;;;;;;;5.75;3.78;;;18.40;99.90;;;;;;5008631;28;20022;-76
2022/10/07 12:33:43;;;;;;;5.47;4.18;;;18.40;99.90;;;;;;5005961;28;20037;-76
2022/10/07 12:36:17;;;;;;;8.45;4.05;;;18.40;99.90;;;;;;5011953;28;20026;-77
2022/10/07 12:39:06;;;;;;;6.93;3.97;;;18.50;99.90;;;;;;5009156;28;20030;-77
2022/10/07 12:41:39;;;;;;;8.65;3.95;;;18.60;99.90;;;;;;5010360;28;20018;-75
2022/10/07 12:44:22;;;;;;;4.63;3.60;;;18.60;99.90;;;;;;5011675;28;20060;-76
2022/10/07 12:46:59;;;;;;;6.75;4.00;;;18.60;99.90;;;;;;4988565;28;20390;-77
2022/10/07 12:49:47;;;;;;;5.20;3.80;;;18.70;99.90;;;;;;5006325;28;20052;-76
2022/10/07 12:52:21;;;;;;;5.63;3.67;;;18.60;99.90;;;;;;5000819;28;20025;-76
2022/10/07 12:54:53;;;;;;;6.70;3.53;;;18.60;99.90;;;;;;4996615;28;20120;-76
2022/10/07 12:57:26;;;;;;;6.10;4.15;;;18.70;99.90;;;;;;5008853;28;20029;-76
2022/10/07 13:00:17;;;;;;;4.82;3.50;;;18.70;99.90;;;;;;5010609;28;20033;-76
2022/10/07 13:03:21;;;;;;;5.60;3.58;;;18.70;99.90;;;;;;5008861;28;20032;-75
2022/10/07 13:06:08;;;;;;;10.40;4.20;;;18.60;99.90;;;;;;5012811;28;20470;-76
2022/10/07 13:08:45;;;;;;;6.07;4.00;;;18.60;99.90;;;;;;5011623;28;20029;-77
2022/10/07 13:11:35;;;;;;;7.45;4.32;;;18.70;99.90;;;;;;5008030;28;20072;-75
2022/10/07 13:14:25;;;;;;;5.60;3.92;;;18.60;99.90;;;;;;5010712;28;20121;-76
2022/10/07 13:17:17;;;;;;;4.70;3.53;;;18.60;99.90;;;;;;5015857;28;20471;-76
2022/10/07 13:20:00;;;;;;;7.47;4.32;;;18.50;99.90;;;;;;5010827;28;20487;-76
2022/10/07 13:22:34;;;;;;;4.85;3.88;;;18.50;99.90;;;;;;5011772;28;20466;-76
2022/10/07 13:25:03;;;;;;;6.55;3.92;;;18.40;99.90;;;;;;5010382;28;20589;-76
2022/10/07 13:27:31;;;;;;;6.00;3.58;;;18.40;99.90;;;;;;5015261;28;20053;-75